createdAt,value
2022-10-29T00:00:15.967Z,97186.97
2022-10-29T00:00:56.240Z,97184.28
2022-10-29T00:01:28.140Z,97187.41
2022-10-29T00:02:00.845Z,97186.31
2022-10-29T00:02:32.681Z,97191.50
2022-10-29T00:03:05.434Z,97194.50
2022-10-29T00:03:37.584Z,97189.28
2022-10-29T00:04:09.470Z,97195.63
2022-10-29T00:04:41.296Z,97197.97
2022-10-29T00:05:13.138Z,97198.28
2022-10-29T00:05:54.044Z,97197.84
2022-10-29T00:06:25.955Z,97198.44
2022-10-29T00:06:58.114Z,97197.63
2022-10-29T00:07:29.969Z,97193.25
2022-10-29T00:08:02.238Z,97199.41
2022-10-29T00:08:36.739Z,97204.75
2022-10-29T00:09:10.291Z,97198.91
2022-10-29T00:09:42.340Z,97190.13
2022-10-29T00:10:14.273Z,97194.84
2022-10-29T00:10:46.116Z,97194.84
2022-10-29T00:11:20.079Z,97192.19
2022-10-29T00:11:51.842Z,97191.38
2022-10-29T00:12:23.668Z,97197.03
2022-10-29T00:12:55.736Z,97198.63
2022-10-29T00:13:27.615Z,97197.53
2022-10-29T00:14:01.215Z,97202.88
2022-10-29T00:14:33.141Z,97199.72
2022-10-29T00:15:05.160Z,97193.91
2022-10-29T00:15:40.825Z,97198.00
2022-10-29T00:16:17.409Z,97201.63
2022-10-29T00:16:49.197Z,97199.59
2022-10-29T00:17:21.097Z,97198.19
2022-10-29T00:17:53.037Z,97207.44
2022-10-29T00:18:25.213Z,97204.16
2022-10-29T00:18:58.066Z,97200.06
2022-10-29T00:19:30.352Z,97197.69
2022-10-29T00:20:02.454Z,97197.38
2022-10-29T00:20:35.904Z,97193.59
2022-10-29T00:21:11.051Z,97202.88
2022-10-29T00:21:42.892Z,97204.91
2022-10-29T00:22:15.495Z,97201.78
2022-10-29T00:22:48.349Z,97203.03
2022-10-29T00:23:20.121Z,97195.34
2022-10-29T00:23:52.658Z,97202.56
2022-10-29T00:24:24.470Z,97202.41
2022-10-29T00:24:56.653Z,97200.84
2022-10-29T00:25:28.477Z,97204.78
2022-10-29T00:26:01.973Z,97211.38
2022-10-29T00:26:34.049Z,97206.34
2022-10-29T00:27:06.448Z,97209.81
2022-10-29T00:27:39.105Z,97213.59
2022-10-29T00:28:10.887Z,97216.59
2022-10-29T00:28:42.779Z,97221.00
2022-10-29T00:29:14.895Z,97217.66
2022-10-29T00:29:46.751Z,97221.44
2022-10-29T00:30:18.554Z,97221.31
2022-10-29T00:30:50.384Z,97222.88
2022-10-29T00:31:26.700Z,97224.13
2022-10-29T00:31:58.636Z,97223.34
2022-10-29T00:32:31.353Z,97229.63
2022-10-29T00:33:03.225Z,97227.44
2022-10-29T00:33:35.026Z,97222.09
2022-10-29T00:34:06.931Z,97226.19
2022-10-29T00:34:38.763Z,97219.41
2022-10-29T00:35:10.610Z,97216.91
2022-10-29T00:35:42.416Z,97218.94
2022-10-29T00:36:16.961Z,97224.59
2022-10-29T00:36:48.792Z,97226.31
2022-10-29T00:37:21.636Z,97212.63
2022-10-29T00:37:53.651Z,97220.50
2022-10-29T00:38:26.455Z,97213.22
2022-10-29T00:38:58.345Z,97213.38
2022-10-29T00:39:30.583Z,97214.03
2022-10-29T00:40:02.660Z,97214.97
2022-10-29T00:40:38.175Z,97218.56
2022-10-29T00:41:15.872Z,97212.56
2022-10-29T00:41:47.786Z,97217.75
2022-10-29T00:42:19.604Z,97212.88
2022-10-29T00:42:51.550Z,97209.09
2022-10-29T00:43:25.136Z,97216.31
2022-10-29T00:44:15.374Z,97215.06
2022-10-29T00:44:47.691Z,97205.75
2022-10-29T00:45:21.089Z,97206.84
2022-10-29T00:45:57.209Z,97208.09
2022-10-29T00:47:31.841Z,97213.44
2022-10-29T00:48:03.959Z,97217.88
2022-10-29T00:48:40.763Z,97212.66
2022-10-29T00:49:12.748Z,97220.03
2022-10-29T00:49:49.577Z,97209.59
2022-10-29T00:50:24.014Z,97214.16
2022-10-29T00:50:57.821Z,97213.72
2022-10-29T00:51:32.596Z,97208.81
2022-10-29T00:52:05.308Z,97212.28
2022-10-29T00:52:42.999Z,97209.56
2022-10-29T00:53:19.307Z,97216.22
2022-10-29T00:53:56.680Z,97210.41
2022-10-29T00:54:30.643Z,97201.41
2022-10-29T00:55:05.803Z,97210.22
2022-10-29T00:55:38.166Z,97206.13
2022-10-29T00:56:12.780Z,97202.44
2022-10-29T00:56:52.347Z,97203.75
2022-10-29T00:57:28.338Z,97202.31
2022-10-29T00:58:00.869Z,97206.84
2022-10-29T00:58:33.055Z,97206.69
2022-10-29T00:59:07.443Z,97202.13
2022-10-29T00:59:41.031Z,97196.47
2022-10-29T01:00:14.579Z,97199.28
2022-10-29T01:00:46.714Z,97201.50
2022-10-29T01:01:18.846Z,97209.97
2022-10-29T01:01:51.028Z,97197.38
2022-10-29T01:02:24.109Z,97198.63
2022-10-29T01:02:56.289Z,97200.06
2022-10-29T01:03:28.421Z,97199.78
2022-10-29T01:04:00.358Z,97195.41
2022-10-29T01:04:32.529Z,97198.72
2022-10-29T01:05:05.604Z,97190.19
2022-10-29T01:05:37.794Z,97196.00
2022-10-29T01:06:09.582Z,97192.06
2022-10-29T01:06:47.104Z,97193.50
2022-10-29T01:07:21.394Z,97193.13
2022-10-29T01:07:53.160Z,97200.56
2022-10-29T01:08:24.986Z,97202.59
2022-10-29T01:08:56.811Z,97201.50
2022-10-29T01:09:28.716Z,97202.28
2022-10-29T01:10:01.289Z,97201.31
2022-10-29T01:11:01.187Z,97196.78
2022-10-29T01:11:59.374Z,97198.66
2022-10-29T01:12:31.258Z,97198.66
2022-10-29T01:13:18.840Z,97204.69
2022-10-29T01:14:16.293Z,97196.47
2022-10-29T01:15:17.550Z,97203.38
2022-10-29T01:16:03.633Z,97204.38
2022-10-29T01:16:54.757Z,97199.50
2022-10-29T01:17:44.781Z,97203.88
2022-10-29T01:18:25.114Z,97201.50
2022-10-29T01:19:38.931Z,97208.22
2022-10-29T01:20:29.595Z,97209.78
2022-10-29T01:21:38.597Z,97213.25
2022-10-29T01:22:24.911Z,97212.78
2022-10-29T01:23:23.604Z,97210.25
2022-10-29T01:24:22.159Z,97216.13
2022-10-29T01:25:25.978Z,97214.25
2022-10-29T01:26:31.863Z,97221.50
2022-10-29T01:27:22.186Z,97209.97
2022-10-29T01:28:07.983Z,97213.47
2022-10-29T01:29:01.670Z,97220.53
2022-10-29T01:29:51.527Z,97212.22
2022-10-29T01:30:32.762Z,97212.03
2022-10-29T01:31:15.348Z,97215.19
2022-10-29T01:32:25.280Z,97213.00
2022-10-29T01:33:16.766Z,97216.50
2022-10-29T01:34:18.414Z,97209.88
2022-10-29T01:34:57.298Z,97205.75
2022-10-29T01:35:35.317Z,97208.47
2022-10-29T01:36:19.337Z,97202.34
2022-10-29T01:37:01.341Z,97205.94
2022-10-29T01:37:47.803Z,97204.22
2022-10-29T01:38:36.571Z,97203.44
2022-10-29T01:39:43.587Z,97205.50
2022-10-29T01:40:32.484Z,97210.25
2022-10-29T01:41:16.242Z,97199.06
2022-10-29T01:41:57.401Z,97203.59
2022-10-29T01:42:37.103Z,97207.06
2022-10-29T01:43:55.337Z,97212.13
2022-10-29T01:44:46.155Z,97205.66
2022-10-29T01:45:29.489Z,97211.63
2022-10-29T01:46:17.725Z,97203.94
2022-10-29T01:47:03.680Z,97206.44
2022-10-29T01:47:48.269Z,97204.72
2022-10-29T01:48:29.038Z,97196.69
2022-10-29T01:49:09.487Z,97189.47
2022-10-29T01:49:45.687Z,97188.19
2022-10-29T01:50:21.195Z,97191.97
2022-10-29T01:50:57.648Z,97191.22
2022-10-29T01:51:32.482Z,97190.88
2022-10-29T01:52:07.808Z,97185.06
2022-10-29T01:52:41.287Z,97189.16
2022-10-29T01:53:13.980Z,97189.63
2022-10-29T01:53:46.294Z,97188.19
2022-10-29T01:54:18.311Z,97183.50
2022-10-29T01:54:50.099Z,97181.13
2022-10-29T01:55:30.083Z,97188.72
2022-10-29T01:56:01.994Z,97183.19
2022-10-29T01:56:33.816Z,97183.03
2022-10-29T01:57:25.532Z,97191.50
2022-10-29T01:57:57.825Z,97182.38
2022-10-29T01:58:30.714Z,97186.63
2022-10-29T01:59:14.341Z,97183.19
2022-10-29T01:59:58.853Z,97181.28
2022-10-29T02:00:56.687Z,97174.53
2022-10-29T02:01:38.614Z,97179.56
2022-10-29T02:02:47.247Z,97178.31
2022-10-29T02:03:57.795Z,97172.13
2022-10-29T02:04:50.329Z,97181.78
2022-10-29T02:05:46.690Z,97179.13
2022-10-29T02:06:43.022Z,97175.66
2022-10-29T02:07:30.008Z,97178.00
2022-10-29T02:08:08.607Z,97173.09
2022-10-29T02:08:58.788Z,97171.22
2022-10-29T02:09:55.949Z,97173.91
2022-10-29T02:10:31.593Z,97183.19
2022-10-29T02:11:03.342Z,97172.94
2022-10-29T02:11:44.305Z,97178.09
2022-10-29T02:12:30.959Z,97175.59
2022-10-29T02:13:02.856Z,97181.56
2022-10-29T02:13:40.468Z,97178.25
2022-10-29T02:14:28.070Z,97168.00
2022-10-29T02:15:08.171Z,97167.56
2022-10-29T02:15:48.285Z,97167.56
2022-10-29T02:16:21.029Z,97173.09
2022-10-29T02:16:55.107Z,97167.88
2022-10-29T02:17:26.941Z,97175.47
2022-10-29T02:18:04.815Z,97164.44
2022-10-29T02:18:44.823Z,97162.38
2022-10-29T02:19:16.850Z,97165.06
2022-10-29T02:19:49.205Z,97164.72
2022-10-29T02:20:21.061Z,97160.34
2022-10-29T02:20:52.923Z,97159.88
2022-10-29T02:21:24.831Z,97160.22
2022-10-29T02:21:56.627Z,97170.06
2022-10-29T02:22:28.426Z,97162.34
2022-10-29T02:23:00.814Z,97169.91
2022-10-29T02:23:32.634Z,97175.09
2022-10-29T02:24:04.630Z,97181.25
2022-10-29T02:24:36.464Z,97180.63
2022-10-29T02:25:09.140Z,97179.22
2022-10-29T02:25:42.394Z,97177.50
2022-10-29T02:26:14.599Z,97182.50
2022-10-29T02:26:46.470Z,97174.84
2022-10-29T02:27:18.306Z,97169.81
2022-10-29T02:27:50.185Z,97170.88
2022-10-29T02:28:22.007Z,97171.38
2022-10-29T02:28:53.986Z,97172.19
2022-10-29T02:29:26.101Z,97167.75
2022-10-29T02:29:57.931Z,97172.00
2022-10-29T02:30:29.742Z,97168.69
2022-10-29T02:31:01.628Z,97165.41
2022-10-29T02:31:33.594Z,97175.47
2022-10-29T02:32:05.807Z,97169.47
2022-10-29T02:32:37.680Z,97169.66
2022-10-29T02:33:09.457Z,97178.31
2022-10-29T02:33:41.278Z,97178.59
2022-10-29T02:34:13.474Z,97171.25
2022-10-29T02:34:46.414Z,97176.91
2022-10-29T02:35:18.263Z,97173.56
2022-10-29T02:35:50.084Z,97177.03
2022-10-29T02:36:21.955Z,97180.50
2022-10-29T02:36:53.741Z,97170.88
2022-10-29T02:37:25.979Z,97169.31
2022-10-29T02:37:57.797Z,97159.28
2022-10-29T02:38:29.589Z,97157.56
2022-10-29T02:39:01.462Z,97160.38
2022-10-29T02:39:33.284Z,97152.84
2022-10-29T02:40:05.650Z,97147.16
2022-10-29T02:40:37.527Z,97152.81
2022-10-29T02:41:09.383Z,97150.59
2022-10-29T02:41:41.279Z,97146.81
2022-10-29T02:42:13.057Z,97149.97
2022-10-29T02:42:44.854Z,97150.28
2022-10-29T02:43:16.695Z,97154.84
2022-10-29T02:43:48.611Z,97150.28
2022-10-29T02:44:20.519Z,97157.50
2022-10-29T02:44:52.341Z,97154.69
2022-10-29T02:45:24.119Z,97151.72
2022-10-29T02:46:13.270Z,97150.28
2022-10-29T02:46:45.053Z,97151.72
2022-10-29T02:47:17.383Z,97145.56
2022-10-29T02:47:49.326Z,97147.31
2022-10-29T02:48:21.141Z,97140.22
2022-10-29T02:48:53.006Z,97138.97
2022-10-29T02:49:24.823Z,97143.56
2022-10-29T02:49:56.625Z,97137.91
2022-10-29T02:50:28.490Z,97137.91
2022-10-29T02:51:00.325Z,97137.59
2022-10-29T02:51:32.202Z,97132.69
2022-10-29T02:52:04.323Z,97135.84
2022-10-29T02:52:36.136Z,97135.72
2022-10-29T02:53:08.204Z,97131.44
2022-10-29T02:53:40.649Z,97133.66
2022-10-29T02:54:12.596Z,97134.78
2022-10-29T02:54:44.444Z,97136.19
2022-10-29T02:55:16.428Z,97139.81
2022-10-29T02:55:48.246Z,97141.22
2022-10-29T02:56:20.020Z,97138.22
2022-10-29T02:56:51.892Z,97144.22
2022-10-29T02:57:23.654Z,97138.06
2022-10-29T02:57:55.842Z,97148.31
2022-10-29T02:58:27.991Z,97143.47
2022-10-29T02:58:59.988Z,97140.78
2022-10-29T02:59:31.783Z,97139.03
2022-10-29T03:00:05.192Z,97142.00
2022-10-29T03:00:36.960Z,97136.97
2022-10-29T03:01:08.800Z,97139.03
2022-10-29T03:01:40.638Z,97138.38
2022-10-29T03:02:12.848Z,97138.38
2022-10-29T03:02:45.400Z,97130.38
2022-10-29T03:03:17.380Z,97134.63
2022-10-29T03:03:49.218Z,97139.63
2022-10-29T03:04:24.116Z,97135.22
2022-10-29T03:04:56.031Z,97140.88
2022-10-29T03:05:27.960Z,97127.00
2022-10-29T03:05:59.809Z,97121.03
2022-10-29T03:06:31.689Z,97122.28
2022-10-29T03:07:03.513Z,97128.25
2022-10-29T03:07:37.017Z,97127.63
2022-10-29T03:08:08.859Z,97131.84
2022-10-29T03:08:40.883Z,97123.84
2022-10-29T03:09:12.733Z,97124.16
2022-10-29T03:09:44.523Z,97120.50
2022-10-29T03:10:16.541Z,97123.66
2022-10-29T03:10:48.443Z,97123.66
2022-10-29T03:11:20.344Z,97121.16
2022-10-29T03:11:52.268Z,97129.44
2022-10-29T03:12:24.103Z,97128.50
2022-10-29T03:12:58.998Z,97131.97
2022-10-29T03:13:30.893Z,97135.59
2022-10-29T03:14:02.759Z,97140.28
2022-10-29T03:14:34.618Z,97137.28
2022-10-29T03:15:07.149Z,97144.03
2022-10-29T03:15:38.911Z,97138.34
2022-10-29T03:16:10.805Z,97143.06
2022-10-29T03:16:42.749Z,97141.94
2022-10-29T03:17:14.581Z,97142.44
2022-10-29T03:17:46.370Z,97140.84
2022-10-29T03:18:18.249Z,97143.19
2022-10-29T03:18:50.249Z,97142.94
2022-10-29T03:19:22.120Z,97154.41
2022-10-29T03:19:53.950Z,97141.22
2022-10-29T03:20:25.835Z,97149.56
2022-10-29T03:20:57.616Z,97146.94
2022-10-29T03:21:29.564Z,97145.22
2022-10-29T03:22:01.414Z,97146.03
2022-10-29T03:22:33.211Z,97141.66
2022-10-29T03:23:05.093Z,97141.94
2022-10-29T03:23:36.976Z,97145.56
2022-10-29T03:24:08.844Z,97144.19
2022-10-29T03:24:40.654Z,97148.72
2022-10-29T03:25:12.536Z,97152.03
2022-10-29T03:25:45.823Z,97152.50
2022-10-29T03:26:17.673Z,97143.50
2022-10-29T03:26:49.451Z,97137.38
2022-10-29T03:27:21.287Z,97147.41
2022-10-29T03:27:53.194Z,97140.50
2022-10-29T03:28:27.892Z,97139.41
2022-10-29T03:28:59.944Z,97140.38
2022-10-29T03:29:31.888Z,97143.22
2022-10-29T03:30:03.977Z,97147.00
2022-10-29T03:30:35.958Z,97135.34
2022-10-29T03:31:07.766Z,97137.22
2022-10-29T03:31:39.571Z,97146.06
2022-10-29T03:32:11.391Z,97139.13
2022-10-29T03:32:45.028Z,97128.94
2022-10-29T03:33:16.832Z,97134.41
2022-10-29T03:33:48.707Z,97138.69
2022-10-29T03:34:20.540Z,97130.50
2022-10-29T03:34:56.072Z,97125.91
2022-10-29T03:35:31.019Z,97123.25
2022-10-29T03:36:06.047Z,97126.72
2022-10-29T03:36:37.897Z,97129.88
2022-10-29T03:37:09.772Z,97123.84
2022-10-29T03:37:41.896Z,97127.19
2022-10-29T03:38:13.745Z,97122.16
2022-10-29T03:38:45.596Z,97131.13
2022-10-29T03:39:17.605Z,97123.72
2022-10-29T03:39:49.455Z,97124.66
2022-10-29T03:40:21.453Z,97133.63
2022-10-29T03:40:53.352Z,97130.00
2022-10-29T03:41:25.209Z,97128.75
2022-10-29T03:41:56.986Z,97132.06
2022-10-29T03:42:31.142Z,97124.34
2022-10-29T03:43:03.503Z,97127.34
2022-10-29T03:43:38.975Z,97127.34
2022-10-29T03:44:10.830Z,97127.00
2022-10-29T03:44:42.633Z,97134.25
2022-10-29T03:45:14.659Z,97128.56
2022-10-29T03:45:54.563Z,97140.69
2022-10-29T03:46:26.429Z,97136.78
2022-10-29T03:46:58.266Z,97142.44
2022-10-29T03:47:30.146Z,97136.78
2022-10-29T03:48:05.185Z,97136.78
2022-10-29T03:48:37.939Z,97139.81
2022-10-29T03:49:09.735Z,97138.38
2022-10-29T03:49:41.657Z,97140.91
2022-10-29T03:50:13.522Z,97126.31
2022-10-29T03:50:45.391Z,97137.16
2022-10-29T03:51:17.577Z,97138.59
2022-10-29T03:51:49.424Z,97135.28
2022-10-29T03:52:22.439Z,97143.00
2022-10-29T03:52:54.286Z,97144.75
2022-10-29T03:53:27.469Z,97135.47
2022-10-29T03:53:59.288Z,97134.81
2022-10-29T03:54:31.097Z,97134.94
2022-10-29T03:55:02.874Z,97128.53
2022-10-29T03:55:34.895Z,97128.19
2022-10-29T03:56:07.010Z,97125.50
2022-10-29T03:56:38.916Z,97128.53
2022-10-29T03:57:10.702Z,97124.25
2022-10-29T03:57:42.492Z,97115.16
2022-10-29T03:58:14.347Z,97119.84
2022-10-29T03:58:46.123Z,97119.41
2022-10-29T03:59:17.914Z,97126.00
2022-10-29T03:59:52.456Z,97118.44
2022-10-29T04:00:24.704Z,97122.03
2022-10-29T04:01:01.832Z,97123.28
2022-10-29T04:01:33.805Z,97116.88
2022-10-29T04:02:06.365Z,97118.59
2022-10-29T04:02:38.337Z,97122.22
2022-10-29T04:03:10.319Z,97121.75
2022-10-29T04:03:43.992Z,97123.47
2022-10-29T04:04:15.803Z,97123.94
2022-10-29T04:04:47.637Z,97123.00
2022-10-29T04:05:19.437Z,97131.19
2022-10-29T04:05:51.261Z,97130.41
2022-10-29T04:06:23.193Z,97132.28
2022-10-29T04:06:54.968Z,97129.91
2022-10-29T04:07:26.777Z,97128.19
2022-10-29T04:07:58.588Z,97126.94
2022-10-29T04:08:30.421Z,97129.09
2022-10-29T04:09:02.443Z,97140.25
2022-10-29T04:09:34.269Z,97129.06
2022-10-29T04:10:06.340Z,97130.63
2022-10-29T04:10:38.107Z,97132.84
2022-10-29T04:11:14.295Z,97129.06
2022-10-29T04:11:46.103Z,97132.38
2022-10-29T04:12:18.045Z,97140.56
2022-10-29T04:12:49.972Z,97125.91
2022-10-29T04:13:21.983Z,97132.38
2022-10-29T04:13:53.897Z,97138.53
2022-10-29T04:14:26.058Z,97138.22
2022-10-29T04:14:57.900Z,97133.63
2022-10-29T04:15:29.701Z,97132.19
2022-10-29T04:16:01.620Z,97144.31
2022-10-29T04:16:33.447Z,97131.59
2022-10-29T04:17:05.290Z,97139.28
2022-10-29T04:17:37.139Z,97135.22
2022-10-29T04:18:10.264Z,97136.47
2022-10-29T04:18:42.089Z,97140.75
2022-10-29T04:19:14.004Z,97139.81
2022-10-29T04:19:46.290Z,97133.97
2022-10-29T04:20:41.294Z,97131.31
2022-10-29T04:28:57.224Z,97142.66
2022-10-29T04:29:29.064Z,97140.94
2022-10-29T04:30:00.943Z,97143.94
2022-10-29T04:30:32.779Z,97151.16
2022-10-29T04:31:09.776Z,97150.84
2022-10-29T04:31:41.636Z,97141.56
2022-10-29T04:32:13.405Z,97142.53
2022-10-29T04:32:45.152Z,97148.66
2022-10-29T04:33:16.969Z,97147.72
2022-10-29T04:33:48.802Z,97144.25
2022-10-29T04:34:20.584Z,97147.41
2022-10-29T04:34:52.371Z,97144.88
2022-10-29T04:35:24.551Z,97142.34
2022-10-29T04:35:56.298Z,97142.66
2022-10-29T04:36:28.118Z,97144.56
2022-10-29T04:36:59.924Z,97140.00
2022-10-29T04:37:31.860Z,97135.56
2022-10-29T04:38:12.974Z,97141.25
2022-10-29T04:38:44.751Z,97134.47
2022-10-29T04:39:19.527Z,97134.19
2022-10-29T04:39:54.405Z,97133.38
2022-10-29T04:40:26.182Z,97128.03
2022-10-29T04:40:59.735Z,97132.75
2022-10-29T04:41:31.844Z,97134.66
2022-10-29T04:42:03.636Z,97132.78
2022-10-29T04:42:39.606Z,97135.59
2022-10-29T04:43:11.488Z,97134.50
2022-10-29T04:43:43.251Z,97129.94
2022-10-29T04:44:15.181Z,97136.09
2022-10-29T04:44:46.986Z,97135.16
2022-10-29T04:45:18.890Z,97137.03
2022-10-29T04:45:54.518Z,97133.09
2022-10-29T04:46:26.314Z,97137.03
2022-10-29T04:46:58.125Z,97138.91
2022-10-29T04:47:30.166Z,97131.69
2022-10-29T04:48:03.655Z,97140.94
2022-10-29T04:48:35.545Z,97137.97
2022-10-29T04:49:07.571Z,97132.78
2022-10-29T04:49:39.683Z,97141.13
2022-10-29T04:50:11.528Z,97139.38
2022-10-29T04:50:43.320Z,97137.66
2022-10-29T04:51:26.541Z,97141.91
2022-10-29T04:51:58.440Z,97140.63
2022-10-29T04:52:30.228Z,97135.28
2022-10-29T04:53:06.010Z,97134.22
2022-10-29T04:53:40.060Z,97137.81
2022-10-29T04:54:11.890Z,97136.25
2022-10-29T04:54:43.723Z,97134.53
2022-10-29T04:55:15.603Z,97139.88
2022-10-29T04:55:47.824Z,97128.88
2022-10-29T04:56:19.958Z,97126.50
2022-10-29T04:56:51.759Z,97131.53
2022-10-29T04:57:23.632Z,97132.16
2022-10-29T04:57:56.117Z,97134.22
2022-10-29T04:58:28.304Z,97142.69
2022-10-29T04:59:00.181Z,97139.56
2022-10-29T04:59:32.015Z,97136.22
2022-10-29T05:00:04.446Z,97140.63
2022-10-29T05:00:36.276Z,97140.63
2022-10-29T05:01:08.225Z,97138.28
2022-10-29T05:01:40.127Z,97137.16
2022-10-29T05:02:11.915Z,97134.94
2022-10-29T05:02:51.305Z,97141.41
2022-10-29T05:03:23.169Z,97139.97
2022-10-29T05:03:59.025Z,97136.97
2022-10-29T05:04:32.012Z,97134.63
2022-10-29T05:05:03.963Z,97133.03
2022-10-29T05:05:37.947Z,97139.03
2022-10-29T05:06:09.787Z,97132.09
2022-10-29T05:06:41.684Z,97134.19
2022-10-29T05:07:13.539Z,97131.19
2022-10-29T05:07:45.378Z,97125.19
2022-10-29T05:08:17.996Z,97127.09
2022-10-29T05:08:49.836Z,97127.56
2022-10-29T05:09:22.113Z,97123.94
2022-10-29T05:09:54.001Z,97117.97
2022-10-29T05:10:33.745Z,97120.91
2022-10-29T05:11:06.355Z,97118.56
2022-10-29T05:11:38.377Z,97117.13
2022-10-29T05:12:10.395Z,97106.78
2022-10-29T05:12:42.396Z,97110.84
2022-10-29T05:13:14.609Z,97124.22
2022-10-29T05:13:46.567Z,97119.94
2022-10-29T05:14:18.547Z,97111.78
2022-10-29T05:14:50.507Z,97110.84
2022-10-29T05:15:22.623Z,97117.13
2022-10-29T05:15:54.632Z,97113.66
2022-10-29T05:16:26.608Z,97113.03
2022-10-29T05:16:58.592Z,97106.44
2022-10-29T05:17:30.634Z,97114.28
2022-10-29T05:18:03.504Z,97109.09
2022-10-29T05:18:37.410Z,97111.28
2022-10-29T05:19:16.674Z,97120.56
2022-10-29T05:19:48.724Z,97117.53
2022-10-29T05:20:20.701Z,97122.25
2022-10-29T05:20:54.203Z,97125.72
2022-10-29T05:21:26.296Z,97122.09
2022-10-29T05:21:58.237Z,97125.72
2022-10-29T05:22:30.280Z,97122.25
2022-10-29T05:23:08.016Z,97124.59
2022-10-29T05:23:39.869Z,97130.75
2022-10-29T05:24:11.834Z,97131.53
2022-10-29T05:24:43.720Z,97142.25
2022-10-29T05:25:16.140Z,97135.91
2022-10-29T05:25:49.296Z,97141.13
2022-10-29T05:26:21.376Z,97133.59
2022-10-29T05:26:53.352Z,97145.06
2022-10-29T05:27:25.267Z,97145.88
2022-10-29T05:28:05.433Z,97146.97
2022-10-29T05:28:37.331Z,97140.88
2022-10-29T05:29:09.261Z,97137.38
2022-10-29T05:29:41.210Z,97139.56
2022-10-29T05:30:13.255Z,97138.47
2022-10-29T05:30:46.461Z,97133.00
2022-10-29T05:31:19.238Z,97138.03
2022-10-29T05:31:53.599Z,97132.69
2022-10-29T05:32:28.800Z,97132.56
2022-10-29T05:33:01.278Z,97133.34
2022-10-29T05:33:33.169Z,97129.56
2022-10-29T05:34:05.081Z,97132.84
2022-10-29T05:34:44.356Z,97125.78
2022-10-29T05:35:16.815Z,97123.72
2022-10-29T05:35:49.442Z,97132.69
2022-10-29T05:36:21.484Z,97123.09
2022-10-29T05:36:53.702Z,97125.91
2022-10-29T05:37:27.785Z,97132.66
2022-10-29T05:38:00.495Z,97129.69
2022-10-29T05:38:32.760Z,97135.63
2022-10-29T05:39:04.659Z,97128.25
2022-10-29T05:39:36.647Z,97130.59
2022-10-29T05:40:09.570Z,97134.53
2022-10-29T05:40:45.001Z,97137.03
2022-10-29T05:41:17.204Z,97142.88
2022-10-29T05:41:49.210Z,97143.66
2022-10-29T05:42:21.191Z,97138.13
2022-10-29T05:42:53.113Z,97141.44
2022-10-29T05:43:25.162Z,97143.00
2022-10-29T05:43:57.226Z,97131.53
2022-10-29T05:44:29.259Z,97132.44
2022-10-29T05:45:01.242Z,97140.16
2022-10-29T05:45:33.229Z,97134.22
2022-10-29T05:46:05.503Z,97132.97
2022-10-29T05:46:37.573Z,97140.38
2022-10-29T05:47:09.476Z,97135.97
2022-10-29T05:47:41.811Z,97130.63
2022-10-29T05:48:13.869Z,97143.56
2022-10-29T05:48:46.019Z,97139.47
2022-10-29T05:49:17.936Z,97131.16
2022-10-29T05:49:49.937Z,97140.94
2022-10-29T05:50:22.075Z,97136.09
2022-10-29T05:50:53.994Z,97135.59
2022-10-29T05:51:26.039Z,97134.94
2022-10-29T05:51:58.125Z,97139.97
2022-10-29T05:52:30.130Z,97137.13
2022-10-29T05:53:04.847Z,97124.53
2022-10-29T05:53:36.934Z,97129.06
2022-10-29T05:54:08.941Z,97128.28
2022-10-29T05:54:40.887Z,97125.78
2022-10-29T05:55:12.941Z,97126.38
2022-10-29T05:55:44.953Z,97124.00
2022-10-29T05:56:17.027Z,97127.19
2022-10-29T05:56:49.073Z,97124.97
2022-10-29T05:57:21.295Z,97125.75
2022-10-29T05:58:00.943Z,97124.59
2022-10-29T05:58:33.092Z,97122.72
2022-10-29T05:59:05.162Z,97113.13
2022-10-29T05:59:37.185Z,97121.28
2022-10-29T06:00:09.767Z,97124.16
2022-10-29T06:00:45.312Z,97119.41
2022-10-29T06:01:19.883Z,97117.69
2022-10-29T06:01:52.086Z,97118.16
2022-10-29T06:02:24.585Z,97126.69
2022-10-29T06:02:57.451Z,97112.34
2022-10-29T06:03:30.094Z,97110.91
2022-10-29T06:04:05.075Z,97123.47
2022-10-29T06:04:36.960Z,97112.94
2022-10-29T06:05:09.125Z,97119.53
2022-10-29T06:05:41.445Z,97118.94
2022-10-29T06:06:13.511Z,97106.94
2022-10-29T06:06:45.706Z,97118.16
2022-10-29T06:07:17.665Z,97109.78
2022-10-29T06:07:57.730Z,97113.44
2022-10-29T06:08:30.047Z,97111.81
2022-10-29T06:09:02.028Z,97122.06
2022-10-29T06:09:34.170Z,97118.09
2022-10-29T06:10:07.048Z,97129.75
2022-10-29T06:10:39.099Z,97128.16
2022-10-29T06:11:11.071Z,97123.78
2022-10-29T06:11:43.050Z,97123.47
2022-10-29T06:12:15.065Z,97122.78
2022-10-29T06:12:47.154Z,97121.38
2022-10-29T06:13:21.366Z,97123.41
2022-10-29T06:13:56.936Z,97118.66
2022-10-29T06:14:28.882Z,97118.38
2022-10-29T06:15:00.861Z,97123.34
2022-10-29T06:15:32.739Z,97127.25
2022-10-29T06:16:04.680Z,97128.19
2022-10-29T06:16:36.500Z,97129.31
2022-10-29T06:17:08.249Z,97124.28
2022-10-29T06:17:44.467Z,97121.41
2022-10-29T06:18:16.464Z,97123.81
2022-10-29T06:18:48.384Z,97125.94
2022-10-29T06:19:20.199Z,97124.38
2022-10-29T06:19:51.928Z,97126.88
2022-10-29T06:20:23.748Z,97122.16
2022-10-29T06:20:59.682Z,97122.78
2022-10-29T06:21:31.651Z,97121.41
2022-10-29T06:22:04.367Z,97116.53
2022-10-29T06:22:36.150Z,97125.66
2022-10-29T06:23:07.921Z,97123.91
2022-10-29T06:23:39.816Z,97122.78
2022-10-29T06:24:12.203Z,97122.78
2022-10-29T06:24:43.975Z,97124.94
2022-10-29T06:25:15.890Z,97126.19
2022-10-29T06:25:47.752Z,97116.72
2022-10-29T06:26:19.717Z,97124.28
2022-10-29T06:26:53.816Z,97128.69
2022-10-29T06:27:25.927Z,97128.00
2022-10-29T06:28:05.918Z,97120.59
2022-10-29T06:28:37.718Z,97133.97
2022-10-29T06:29:09.451Z,97130.47
2022-10-29T06:29:41.216Z,97127.50
2022-10-29T06:30:13.218Z,97118.09
2022-10-29T06:30:49.794Z,97126.06
2022-10-29T06:31:21.822Z,97121.38
2022-10-29T06:31:53.646Z,97118.78
2022-10-29T06:32:25.385Z,97124.41
2022-10-29T06:32:57.776Z,97119.41
2022-10-29T06:33:29.950Z,97116.22
2022-10-29T06:34:01.877Z,97119.84
2022-10-29T06:34:33.757Z,97113.97
2022-10-29T06:35:06.059Z,97122.09
2022-10-29T06:35:37.793Z,97110.13
2022-10-29T06:36:09.605Z,97119.34
2022-10-29T06:36:41.514Z,97110.78
2022-10-29T06:37:13.464Z,97104.19
2022-10-29T06:37:45.316Z,97111.63
2022-10-29T06:38:17.268Z,97105.50
2022-10-29T06:38:49.228Z,97108.81
2022-10-29T06:39:21.023Z,97112.41
2022-10-29T06:39:52.776Z,97110.38
2022-10-29T06:40:24.631Z,97104.06
2022-10-29T06:40:56.697Z,97109.53
2022-10-29T06:41:28.769Z,97113.59
2022-10-29T06:42:00.500Z,97111.03
2022-10-29T06:42:34.981Z,97100.31
2022-10-29T06:43:09.289Z,97110.28
2022-10-29T06:43:41.407Z,97113.28
2022-10-29T06:44:13.243Z,97111.50
2022-10-29T06:44:44.976Z,97118.09
2022-10-29T06:45:16.981Z,97114.63
2022-10-29T06:45:50.031Z,97123.16
2022-10-29T06:46:21.815Z,97114.13
2022-10-29T06:46:53.586Z,97118.69
2022-10-29T06:47:25.348Z,97122.78
2022-10-29T06:47:57.545Z,97130.50
2022-10-29T06:48:29.729Z,97132.41
2022-10-29T06:49:02.768Z,97137.44
2022-10-29T06:49:34.502Z,97135.63
2022-10-29T06:50:06.768Z,97142.66
2022-10-29T06:50:38.514Z,97143.84
2022-10-29T06:51:10.438Z,97142.09
2022-10-29T06:51:42.387Z,97143.66
2022-10-29T06:52:14.091Z,97137.81
2022-10-29T06:53:00.692Z,97136.38